sensor_id;sensor_type;location;lat;lon;timestamp;pressure;altitude;pressure_sealevel;temperature;humidity
10978;BME280;5542;48.272;10.794;2023-03-24T00:00:31;95041.31;;;12.16;66.65
10978;BME280;5542;48.272;10.794;2023-03-24T00:02:58;95032.53;;;12.05;67.29
10978;BME280;5542;48.272;10.794;2023-03-24T00:05:26;95032.50;;;12.00;67.59
10978;BME280;5542;48.272;10.794;2023-03-24T00:07:54;95034.91;;;12.01;67.56
10978;BME280;5542;48.272;10.794;2023-03-24T00:10:22;95033.78;;;11.92;67.58
10978;BME280;5542;48.272;10.794;2023-03-24T00:12:49;95028.25;;;11.94;67.58
10978;BME280;5542;48.272;10.794;2023-03-24T00:15:18;95033.22;;;11.90;67.58
10978;BME280;5542;48.272;10.794;2023-03-24T00:17:45;95035.97;;;12.05;66.94
10978;BME280;5542;48.272;10.794;2023-03-24T00:20:15;95039.09;;;11.97;67.03
10978;BME280;5542;48.272;10.794;2023-03-24T00:22:43;95038.09;;;12.09;66.33
10978;BME280;5542;48.272;10.794;2023-03-24T00:25:13;95034.38;;;12.04;66.29
10978;BME280;5542;48.272;10.794;2023-03-24T00:27:41;95034.91;;;12.01;66.46
10978;BME280;5542;48.272;10.794;2023-03-24T00:30:14;95032.25;;;11.96;66.41
10978;BME280;5542;48.272;10.794;2023-03-24T00:32:41;95029.59;;;11.96;66.56
10978;BME280;5542;48.272;10.794;2023-03-24T00:35:09;95031.66;;;11.89;66.52
10978;BME280;5542;48.272;10.794;2023-03-24T00:37:37;95025.47;;;12.11;65.79
10978;BME280;5542;48.272;10.794;2023-03-24T00:40:07;95014.09;;;12.05;65.94
10978;BME280;5542;48.272;10.794;2023-03-24T00:42:37;95014.88;;;12.05;65.45
10978;BME280;5542;48.272;10.794;2023-03-24T00:45:07;95015.41;;;12.02;65.67
10978;BME280;5542;48.272;10.794;2023-03-24T00:47:34;95004.84;;;11.97;65.91
10978;BME280;5542;48.272;10.794;2023-03-24T00:50:03;95006.88;;;11.90;66.34
10978;BME280;5542;48.272;10.794;2023-03-24T00:52:30;94999.28;;;11.94;65.94
10978;BME280;5542;48.272;10.794;2023-03-24T00:54:59;94996.44;;;12.05;65.51
10978;BME280;5542;48.272;10.794;2023-03-24T00:57:27;94995.91;;;12.03;65.54
10978;BME280;5542;48.272;10.794;2023-03-24T00:59:55;94991.25;;;12.21;64.41
10978;BME280;5542;48.272;10.794;2023-03-24T01:02:24;94998.00;;;12.01;65.37
10978;BME280;5542;48.272;10.794;2023-03-24T01:04:53;94991.25;;;12.21;64.77
10978;BME280;5542;48.272;10.794;2023-03-24T01:07:21;94998.88;;;12.17;65.01
10978;BME280;5542;48.272;10.794;2023-03-24T01:09:48;95006.22;;;12.15;64.86
10978;BME280;5542;48.272;10.794;2023-03-24T01:12:22;95013.53;;;11.98;65.60
10978;BME280;5542;48.272;10.794;2023-03-24T01:14:48;95036.50;;;12.02;65.70
10978;BME280;5542;48.272;10.794;2023-03-24T01:17:15;95036.53;;;12.13;65.90
10978;BME280;5542;48.272;10.794;2023-03-24T01:19:44;95022.78;;;12.05;66.03
10978;BME280;5542;48.272;10.794;2023-03-24T01:22:11;95012.00;;;12.07;66.53
10978;BME280;5542;48.272;10.794;2023-03-24T01:24:38;95005.88;;;11.96;67.21
10978;BME280;5542;48.272;10.794;2023-03-24T01:27:04;95011.72;;;12.03;67.51
10978;BME280;5542;48.272;10.794;2023-03-24T01:29:31;95009.56;;;12.00;68.06
10978;BME280;5542;48.272;10.794;2023-03-24T01:31:58;95011.69;;;11.98;68.02
10978;BME280;5542;48.272;10.794;2023-03-24T01:34:24;95018.06;;;12.08;67.62
10978;BME280;5542;48.272;10.794;2023-03-24T01:36:52;95011.00;;;12.18;66.85
10978;BME280;5542;48.272;10.794;2023-03-24T01:39:19;95017.03;;;12.14;66.34
10978;BME280;5542;48.272;10.794;2023-03-24T01:41:46;95007.56;;;12.13;66.21
10978;BME280;5542;48.272;10.794;2023-03-24T01:44:24;94999.34;;;12.09;65.94
10978;BME280;5542;48.272;10.794;2023-03-24T01:46:51;95011.56;;;12.20;65.24
10978;BME280;5542;48.272;10.794;2023-03-24T01:49:18;95007.28;;;12.14;65.89
10978;BME280;5542;48.272;10.794;2023-03-24T01:51:48;95002.03;;;12.14;66.39
10978;BME280;5542;48.272;10.794;2023-03-24T01:54:19;94991.22;;;12.11;66.58
10978;BME280;5542;48.272;10.794;2023-03-24T01:56:49;94990.97;;;12.17;66.47
10978;BME280;5542;48.272;10.794;2023-03-24T01:59:19;94994.63;;;12.06;66.77
10978;BME280;5542;48.272;10.794;2023-03-24T02:01:48;94992.03;;;12.16;67.20
10978;BME280;5542;48.272;10.794;2023-03-24T02:04:16;94992.56;;;12.18;67.71
10978;BME280;5542;48.272;10.794;2023-03-24T02:06:44;94994.94;;;12.20;67.83
10978;BME280;5542;48.272;10.794;2023-03-24T02:09:13;94998.63;;;12.19;68.67
10978;BME280;5542;48.272;10.794;2023-03-24T02:11:42;95002.06;;;12.24;69.37
10978;BME280;5542;48.272;10.794;2023-03-24T02:14:10;95009.59;;;12.05;70.80
10978;BME280;5542;48.272;10.794;2023-03-24T02:16:50;94987.69;;;11.95;71.47
10978;BME280;5542;48.272;10.794;2023-03-24T02:19:51;94973.69;;;11.89;72.06
10978;BME280;5542;48.272;10.794;2023-03-24T02:25:46;94975.16;;;11.80;73.53
10978;BME280;5542;48.272;10.794;2023-03-24T02:28:26;94957.19;;;11.72;74.17
10978;BME280;5542;48.272;10.794;2023-03-24T02:31:11;94944.56;;;11.69;74.81
10978;BME280;5542;48.272;10.794;2023-03-24T02:34:23;94940.06;;;11.69;75.80
10978;BME280;5542;48.272;10.794;2023-03-24T02:37:28;94940.03;;;11.64;77.01
10978;BME280;5542;48.272;10.794;2023-03-24T02:40:05;94932.09;;;11.54;77.66
10978;BME280;5542;48.272;10.794;2023-03-24T02:42:44;94929.47;;;11.59;78.05
10978;BME280;5542;48.272;10.794;2023-03-24T02:45:21;94926.78;;;11.49;78.06
10978;BME280;5542;48.272;10.794;2023-03-24T02:48:00;94919.56;;;11.39;78.33
10978;BME280;5542;48.272;10.794;2023-03-24T02:50:36;94914.84;;;11.36;78.35
10978;BME280;5542;48.272;10.794;2023-03-24T02:53:09;94906.69;;;11.38;78.20
10978;BME280;5542;48.272;10.794;2023-03-24T02:55:42;94910.88;;;11.39;78.09
10978;BME280;5542;48.272;10.794;2023-03-24T02:58:16;94903.25;;;11.37;77.95
10978;BME280;5542;48.272;10.794;2023-03-24T03:00:46;94901.63;;;11.31;78.26
10978;BME280;5542;48.272;10.794;2023-03-24T03:03:18;94894.78;;;11.30;78.36
10978;BME280;5542;48.272;10.794;2023-03-24T03:05:51;94899.22;;;11.29;78.45
10978;BME280;5542;48.272;10.794;2023-03-24T03:08:20;94897.47;;;11.35;78.58
10978;BME280;5542;48.272;10.794;2023-03-24T03:10:51;94891.13;;;11.36;78.99
10978;BME280;5542;48.272;10.794;2023-03-24T03:13:21;94901.66;;;11.36;79.29
10978;BME280;5542;48.272;10.794;2023-03-24T03:15:53;94895.66;;;11.41;78.65
10978;BME280;5542;48.272;10.794;2023-03-24T03:18:25;94895.94;;;11.44;77.76
10978;BME280;5542;48.272;10.794;2023-03-24T03:20:58;94882.06;;;11.59;75.47
10978;BME280;5542;48.272;10.794;2023-03-24T03:23:34;94878.31;;;11.45;75.72
10978;BME280;5542;48.272;10.794;2023-03-24T03:26:04;94879.63;;;11.47;75.72
10978;BME280;5542;48.272;10.794;2023-03-24T03:28:33;94872.19;;;11.39;75.94
10978;BME280;5542;48.272;10.794;2023-03-24T03:31:04;94868.22;;;11.37;76.22
10978;BME280;5542;48.272;10.794;2023-03-24T03:33:35;94870.56;;;11.33;76.49
10978;BME280;5542;48.272;10.794;2023-03-24T03:36:07;94864.81;;;11.36;76.13
10978;BME280;5542;48.272;10.794;2023-03-24T03:38:43;94870.28;;;11.29;76.46
10978;BME280;5542;48.272;10.794;2023-03-24T03:41:15;94869.50;;;11.29;76.54
10978;BME280;5542;48.272;10.794;2023-03-24T03:43:43;94869.75;;;11.27;76.42
10978;BME280;5542;48.272;10.794;2023-03-24T03:46:10;94863.69;;;11.27;76.35
10978;BME280;5542;48.272;10.794;2023-03-24T03:48:38;94872.66;;;11.26;76.23
10978;BME280;5542;48.272;10.794;2023-03-24T03:51:05;94871.34;;;11.28;75.87
10978;BME280;5542;48.272;10.794;2023-03-24T03:53:38;94874.22;;;11.27;75.96
10978;BME280;5542;48.272;10.794;2023-03-24T03:56:08;94860.56;;;11.30;75.63
10978;BME280;5542;48.272;10.794;2023-03-24T03:58:36;94858.69;;;11.25;75.71
10978;BME280;5542;48.272;10.794;2023-03-24T04:01:06;94865.25;;;11.23;75.87
10978;BME280;5542;48.272;10.794;2023-03-24T04:03:46;94860.03;;;11.33;75.35
10978;BME280;5542;48.272;10.794;2023-03-24T04:06:21;94868.22;;;11.37;75.31
10978;BME280;5542;48.272;10.794;2023-03-24T04:08:55;94868.22;;;11.32;75.61
10978;BME280;5542;48.272;10.794;2023-03-24T04:11:45;94864.97;;;11.24;75.97
10978;BME280;5542;48.272;10.794;2023-03-24T04:14:27;94861.28;;;11.20;76.38
10978;BME280;5542;48.272;10.794;2023-03-24T04:17:01;94869.94;;;11.16;76.42
10978;BME280;5542;48.272;10.794;2023-03-24T04:19:39;94867.84;;;11.18;76.19
10978;BME280;5542;48.272;10.794;2023-03-24T04:22:23;94875.97;;;11.11;76.28
10978;BME280;5542;48.272;10.794;2023-03-24T04:24:52;94862.81;;;11.11;76.27
10978;BME280;5542;48.272;10.794;2023-03-24T04:27:25;94877.25;;;11.09;76.69
10978;BME280;5542;48.272;10.794;2023-03-24T04:30:01;94887.50;;;11.10;76.07
10978;BME280;5542;48.272;10.794;2023-03-24T04:32:37;94885.94;;;11.09;76.14
10978;BME280;5542;48.272;10.794;2023-03-24T04:35:10;94890.66;;;11.07;76.39
10978;BME280;5542;48.272;10.794;2023-03-24T04:37:39;94888.81;;;11.08;76.44
10978;BME280;5542;48.272;10.794;2023-03-24T04:40:09;94884.09;;;11.10;76.27
10978;BME280;5542;48.272;10.794;2023-03-24T04:42:38;94885.63;;;11.06;76.65
10978;BME280;5542;48.272;10.794;2023-03-24T04:45:09;94887.25;;;11.07;76.58
10978;BME280;5542;48.272;10.794;2023-03-24T04:47:40;94894.38;;;11.11;76.03
10978;BME280;5542;48.272;10.794;2023-03-24T04:50:10;94895.75;;;11.19;75.33
10978;BME280;5542;48.272;10.794;2023-03-24T04:52:38;94909.44;;;11.16;75.49
10978;BME280;5542;48.272;10.794;2023-03-24T04:55:26;94908.00;;;11.03;76.24
10978;BME280;5542;48.272;10.794;2023-03-24T04:57:56;94904.34;;;11.09;76.50
10978;BME280;5542;48.272;10.794;2023-03-24T05:00:24;94903.47;;;10.98;76.59
10978;BME280;5542;48.272;10.794;2023-03-24T05:02:52;94902.47;;;11.05;76.89
10978;BME280;5542;48.272;10.794;2023-03-24T05:05:19;94903.44;;;10.93;77.15
10978;BME280;5542;48.272;10.794;2023-03-24T05:07:46;94899.41;;;10.86;77.93
10978;BME280;5542;48.272;10.794;2023-03-24T05:10:13;94892.13;;;10.93;78.24
10978;BME280;5542;48.272;10.794;2023-03-24T05:12:41;94894.41;;;10.84;78.96
10978;BME280;5542;48.272;10.794;2023-03-24T05:15:08;94890.44;;;10.82;79.12
10978;BME280;5542;48.272;10.794;2023-03-24T05:17:36;94893.63;;;10.84;79.28
10978;BME280;5542;48.272;10.794;2023-03-24T05:20:03;94879.91;;;10.82;79.67
10978;BME280;5542;48.272;10.794;2023-03-24T05:22:35;94844.44;;;10.84;79.24
10978;BME280;5542;48.272;10.794;2023-03-24T05:25:01;94829.69;;;10.83;79.51
10978;BME280;5542;48.272;10.794;2023-03-24T05:27:28;94835.19;;;10.82;79.70
10978;BME280;5542;48.272;10.794;2023-03-24T05:29:54;94827.81;;;10.79;80.25
10978;BME280;5542;48.272;10.794;2023-03-24T05:32:21;94838.63;;;10.82;80.25
10978;BME280;5542;48.272;10.794;2023-03-24T05:34:49;94837.06;;;10.86;80.32
10978;BME280;5542;48.272;10.794;2023-03-24T05:37:16;94840.78;;;10.90;80.16
10978;BME280;5542;48.272;10.794;2023-03-24T05:39:42;94841.88;;;10.94;79.97
10978;BME280;5542;48.272;10.794;2023-03-24T05:42:09;94833.72;;;10.96;79.95
10978;BME280;5542;48.272;10.794;2023-03-24T05:44:36;94837.72;;;10.98;80.29
10978;BME280;5542;48.272;10.794;2023-03-24T05:47:03;94837.22;;;11.01;80.22
10978;BME280;5542;48.272;10.794;2023-03-24T05:49:30;94840.38;;;11.03;80.32
10978;BME280;5542;48.272;10.794;2023-03-24T05:51:58;94837.75;;;11.03;80.37
10978;BME280;5542;48.272;10.794;2023-03-24T05:54:25;94831.22;;;11.11;80.42
10978;BME280;5542;48.272;10.794;2023-03-24T05:56:51;94840.41;;;11.09;80.74
10978;BME280;5542;48.272;10.794;2023-03-24T05:59:18;94838.06;;;11.12;80.56
10978;BME280;5542;48.272;10.794;2023-03-24T06:01:45;94841.53;;;11.18;80.31
10978;BME280;5542;48.272;10.794;2023-03-24T06:04:12;94840.72;;;11.17;79.46
10978;BME280;5542;48.272;10.794;2023-03-24T06:06:39;94837.34;;;11.22;78.78
10978;BME280;5542;48.272;10.794;2023-03-24T06:09:11;94839.41;;;11.20;78.82
10978;BME280;5542;48.272;10.794;2023-03-24T06:11:38;94829.47;;;11.27;78.44
10978;BME280;5542;48.272;10.794;2023-03-24T06:14:05;94837.91;;;11.29;78.31
10978;BME280;5542;48.272;10.794;2023-03-24T06:16:32;94840.09;;;11.42;77.00
10978;BME280;5542;48.272;10.794;2023-03-24T06:18:59;94842.72;;;11.42;77.63
10978;BME280;5542;48.272;10.794;2023-03-24T06:21:25;94847.22;;;11.42;77.28
10978;BME280;5542;48.272;10.794;2023-03-24T06:23:55;94847.47;;;11.40;77.86
10978;BME280;5542;48.272;10.794;2023-03-24T06:26:24;94851.69;;;11.41;78.10
10978;BME280;5542;48.272;10.794;2023-03-24T06:28:51;94847.94;;;11.32;78.50
10978;BME280;5542;48.272;10.794;2023-03-24T06:31:18;94840.31;;;11.31;78.65
10978;BME280;5542;48.272;10.794;2023-03-24T06:33:45;94868.50;;;11.35;78.88
10978;BME280;5542;48.272;10.794;2023-03-24T06:36:13;94876.94;;;11.37;78.77
10978;BME280;5542;48.272;10.794;2023-03-24T06:38:41;94876.44;;;11.40;78.67
10978;BME280;5542;48.272;10.794;2023-03-24T06:41:08;94871.06;;;11.72;76.48
10978;BME280;5542;48.272;10.794;2023-03-24T06:43:36;94883.56;;;11.87;75.37
10978;BME280;5542;48.272;10.794;2023-03-24T06:46:03;94899.13;;;11.89;75.26
10978;BME280;5542;48.272;10.794;2023-03-24T06:48:29;94890.13;;;11.85;75.61
10978;BME280;5542;48.272;10.794;2023-03-24T06:50:56;94905.56;;;12.18;74.26
10978;BME280;5542;48.272;10.794;2023-03-24T06:53:22;94916.41;;;12.27;73.45
10978;BME280;5542;48.272;10.794;2023-03-24T06:55:49;94926.47;;;12.35;73.00
10978;BME280;5542;48.272;10.794;2023-03-24T06:58:16;94910.66;;;12.40;73.27
10978;BME280;5542;48.272;10.794;2023-03-24T07:00:44;94912.53;;;12.50;72.55
10978;BME280;5542;48.272;10.794;2023-03-24T07:03:13;94918.34;;;12.57;72.16
10978;BME280;5542;48.272;10.794;2023-03-24T07:05:41;94923.38;;;12.59;72.02
10978;BME280;5542;48.272;10.794;2023-03-24T07:08:09;94935.00;;;12.68;72.13
10978;BME280;5542;48.272;10.794;2023-03-24T07:10:38;94936.03;;;12.67;72.18
10978;BME280;5542;48.272;10.794;2023-03-24T07:13:05;94946.63;;;12.77;71.57
10978;BME280;5542;48.272;10.794;2023-03-24T07:15:32;94952.66;;;12.67;72.00
10978;BME280;5542;48.272;10.794;2023-03-24T07:18:00;94955.56;;;12.66;72.40
10978;BME280;5542;48.272;10.794;2023-03-24T07:20:27;94962.16;;;12.58;73.19
10978;BME280;5542;48.272;10.794;2023-03-24T07:22:54;94970.88;;;12.59;74.67
10978;BME280;5542;48.272;10.794;2023-03-24T07:25:21;94974.81;;;12.66;75.64
10978;BME280;5542;48.272;10.794;2023-03-24T07:27:48;94969.25;;;12.57;76.94
10978;BME280;5542;48.272;10.794;2023-03-24T07:30:15;94965.81;;;12.57;77.67
10978;BME280;5542;48.272;10.794;2023-03-24T07:32:41;94968.75;;;12.61;78.37
10978;BME280;5542;48.272;10.794;2023-03-24T07:35:11;94966.63;;;12.57;79.34
10978;BME280;5542;48.272;10.794;2023-03-24T07:37:38;94967.09;;;12.39;79.43
10978;BME280;5542;48.272;10.794;2023-03-24T07:40:06;94966.03;;;12.35;80.86
10978;BME280;5542;48.272;10.794;2023-03-24T07:42:36;94967.88;;;12.35;82.40
10978;BME280;5542;48.272;10.794;2023-03-24T07:45:03;94967.66;;;12.51;82.20
10978;BME280;5542;48.272;10.794;2023-03-24T07:47:29;94964.47;;;12.44;81.75
10978;BME280;5542;48.272;10.794;2023-03-24T07:49:56;94971.81;;;12.37;82.84
10978;BME280;5542;48.272;10.794;2023-03-24T07:52:24;94970.72;;;12.28;83.45
10978;BME280;5542;48.272;10.794;2023-03-24T07:54:51;94979.72;;;12.32;83.93
10978;BME280;5542;48.272;10.794;2023-03-24T07:57:17;94977.88;;;12.33;83.81
10978;BME280;5542;48.272;10.794;2023-03-24T07:59:44;94977.84;;;12.27;83.30
10978;BME280;5542;48.272;10.794;2023-03-24T08:02:15;94972.28;;;12.24;84.56
10978;BME280;5542;48.272;10.794;2023-03-24T08:04:42;94968.88;;;12.28;84.80
10978;BME280;5542;48.272;10.794;2023-03-24T08:07:09;94971.44;;;12.13;85.04
10978;BME280;5542;48.272;10.794;2023-03-24T08:09:38;94971.19;;;12.15;85.57
10978;BME280;5542;48.272;10.794;2023-03-24T08:12:05;94972.53;;;12.22;85.57
10978;BME280;5542;48.272;10.794;2023-03-24T08:14:32;94968.06;;;12.23;85.62
10978;BME280;5542;48.272;10.794;2023-03-24T08:16:58;94977.53;;;12.19;84.93
10978;BME280;5542;48.272;10.794;2023-03-24T08:19:25;94979.59;;;12.07;86.15
10978;BME280;5542;48.272;10.794;2023-03-24T08:21:52;94987.59;;;12.27;86.08
10978;BME280;5542;48.272;10.794;2023-03-24T08:24:19;94989.78;;;12.40;84.84
10978;BME280;5542;48.272;10.794;2023-03-24T08:26:47;94987.06;;;12.25;85.40
10978;BME280;5542;48.272;10.794;2023-03-24T08:29:13;94984.94;;;12.22;86.48
10978;BME280;5542;48.272;10.794;2023-03-24T08:31:40;94993.41;;;12.29;86.26
10978;BME280;5542;48.272;10.794;2023-03-24T08:34:07;94993.13;;;12.25;86.71
10978;BME280;5542;48.272;10.794;2023-03-24T08:36:35;94997.03;;;12.18;86.84
10978;BME280;5542;48.272;10.794;2023-03-24T08:39:02;95004.25;;;12.38;86.83
10978;BME280;5542;48.272;10.794;2023-03-24T08:41:30;95006.94;;;12.48;86.47
10978;BME280;5542;48.272;10.794;2023-03-24T08:44:01;95002.69;;;12.42;86.06
10978;BME280;5542;48.272;10.794;2023-03-24T08:46:29;95001.16;;;12.56;85.67
10978;BME280;5542;48.272;10.794;2023-03-24T08:48:56;95007.22;;;12.51;86.26
10978;BME280;5542;48.272;10.794;2023-03-24T08:51:23;95005.97;;;12.64;85.56
10978;BME280;5542;48.272;10.794;2023-03-24T08:53:50;95007.25;;;12.56;85.07
10978;BME280;5542;48.272;10.794;2023-03-24T08:56:17;95004.59;;;12.51;86.30
10978;BME280;5542;48.272;10.794;2023-03-24T08:58:44;95017.59;;;12.68;85.31
10978;BME280;5542;48.272;10.794;2023-03-24T09:01:14;95007.81;;;12.64;84.75
10978;BME280;5542;48.272;10.794;2023-03-24T09:03:40;95021.97;;;12.52;84.48
10978;BME280;5542;48.272;10.794;2023-03-24T09:06:09;95023.34;;;12.60;84.75
10978;BME280;5542;48.272;10.794;2023-03-24T09:08:36;95003.28;;;12.54;83.44
10978;BME280;5542;48.272;10.794;2023-03-24T09:11:03;95019.34;;;12.52;85.02
10978;BME280;5542;48.272;10.794;2023-03-24T09:13:29;95019.91;;;12.60;84.69
10978;BME280;5542;48.272;10.794;2023-03-24T09:15:58;95025.19;;;12.54;84.93
10978;BME280;5542;48.272;10.794;2023-03-24T09:18:27;95028.03;;;12.48;85.70
10978;BME280;5542;48.272;10.794;2023-03-24T09:20:54;95034.38;;;12.47;86.04
10978;BME280;5542;48.272;10.794;2023-03-24T09:23:21;95026.72;;;12.45;nan
10978;BME280;5542;48.272;10.794;2023-03-24T09:25:48;95027.69;;;12.34;86.35
10978;BME280;5542;48.272;10.794;2023-03-24T09:28:15;95041.44;;;12.36;86.11
10978;BME280;5542;48.272;10.794;2023-03-24T09:30:41;95048.47;;;12.20;87.09
10978;BME280;5542;48.272;10.794;2023-03-24T09:33:08;95053.44;;;12.17;87.94
10978;BME280;5542;48.272;10.794;2023-03-24T09:35:37;95055.38;;;12.32;88.52
10978;BME280;5542;48.272;10.794;2023-03-24T09:38:04;95060.06;;;12.24;87.42
10978;BME280;5542;48.272;10.794;2023-03-24T09:40:35;95053.44;;;12.17;87.79
10978;BME280;5542;48.272;10.794;2023-03-24T09:43:03;95050.03;;;12.16;89.00
10978;BME280;5542;48.272;10.794;2023-03-24T09:45:34;95057.13;;;12.16;89.11
10978;BME280;5542;48.272;10.794;2023-03-24T09:48:04;95050.78;;;12.12;88.13
10978;BME280;5542;48.272;10.794;2023-03-24T09:50:39;95056.00;;;12.01;88.88
10978;BME280;5542;48.272;10.794;2023-03-24T09:53:17;95059.41;;;12.02;89.01
10978;BME280;5542;48.272;10.794;2023-03-24T09:55:48;95060.81;;;12.15;88.65
10978;BME280;5542;48.272;10.794;2023-03-24T09:58:15;95059.16;;;12.03;89.92
10978;BME280;5542;48.272;10.794;2023-03-24T10:00:43;95059.22;;;12.14;91.10
10978;BME280;5542;48.272;10.794;2023-03-24T10:03:14;95061.13;;;12.23;90.21
10978;BME280;5542;48.272;10.794;2023-03-24T10:05:49;95068.53;;;12.26;90.50
10978;BME280;5542;48.272;10.794;2023-03-24T10:08:19;95073.84;;;12.32;90.84
10978;BME280;5542;48.272;10.794;2023-03-24T10:10:56;95074.34;;;12.28;92.04
10978;BME280;5542;48.272;10.794;2023-03-24T10:13:31;95067.59;;;12.48;92.94
10978;BME280;5542;48.272;10.794;2023-03-24T10:16:06;95060.81;;;12.67;92.80
10978;BME280;5542;48.272;10.794;2023-03-24T10:18:41;95058.81;;;12.90;93.49
10978;BME280;5542;48.272;10.794;2023-03-24T10:21:17;95063.88;;;12.96;89.22
10978;BME280;5542;48.272;10.794;2023-03-24T10:23:51;95074.16;;;12.98;91.18
10978;BME280;5542;48.272;10.794;2023-03-24T10:26:30;95054.13;;;13.02;89.19
10978;BME280;5542;48.272;10.794;2023-03-24T10:29:10;95069.66;;;12.98;88.38
10978;BME280;5542;48.272;10.794;2023-03-24T10:31:43;95058.53;;;12.91;89.39
10978;BME280;5542;48.272;10.794;2023-03-24T10:34:12;95047.72;;;12.88;88.79
10978;BME280;5542;48.272;10.794;2023-03-24T10:36:40;95040.03;;;12.81;88.03
10978;BME280;5542;48.272;10.794;2023-03-24T10:39:09;95037.94;;;12.78;88.02
10978;BME280;5542;48.272;10.794;2023-03-24T10:41:40;95025.25;;;12.75;86.13
10978;BME280;5542;48.272;10.794;2023-03-24T10:44:08;95006.25;;;12.68;86.98
10978;BME280;5542;48.272;10.794;2023-03-24T10:46:37;94979.31;;;12.66;86.22
10978;BME280;5542;48.272;10.794;2023-03-24T10:49:14;94985.38;;;12.61;85.45
10978;BME280;5542;48.272;10.794;2023-03-24T10:51:45;95002.78;;;12.67;86.69
10978;BME280;5542;48.272;10.794;2023-03-24T10:54:16;95027.31;;;12.63;86.24
10978;BME280;5542;48.272;10.794;2023-03-24T10:56:45;95028.47;;;12.87;85.40
10978;BME280;5542;48.272;10.794;2023-03-24T10:59:20;95034.88;;;13.06;84.69
10978;BME280;5542;48.272;10.794;2023-03-24T11:01:55;95032.75;;;13.19;83.81
10978;BME280;5542;48.272;10.794;2023-03-24T11:04:22;95032.25;;;13.17;84.42
10978;BME280;5542;48.272;10.794;2023-03-24T11:07:01;95020.69;;;13.38;83.28
10978;BME280;5542;48.272;10.794;2023-03-24T11:09:29;95035.50;;;13.54;80.81
10978;BME280;5542;48.272;10.794;2023-03-24T11:12:01;95024.94;;;13.54;80.65
10978;BME280;5542;48.272;10.794;2023-03-24T11:14:28;95016.47;;;13.57;81.46
10978;BME280;5542;48.272;10.794;2023-03-24T11:17:02;95019.13;;;13.73;79.57
10978;BME280;5542;48.272;10.794;2023-03-24T11:19:35;95011.19;;;13.73;80.72
10978;BME280;5542;48.272;10.794;2023-03-24T11:22:05;95018.56;;;13.81;81.16
10978;BME280;5542;48.272;10.794;2023-03-24T11:24:35;95013.53;;;13.95;78.96
10978;BME280;5542;48.272;10.794;2023-03-24T11:27:03;95009.56;;;14.07;80.75
10978;BME280;5542;48.272;10.794;2023-03-24T11:29:32;95000.53;;;14.19;79.19
10978;BME280;5542;48.272;10.794;2023-03-24T11:32:01;94998.94;;;14.28;79.31
10978;BME280;5542;48.272;10.794;2023-03-24T11:34:31;94996.53;;;14.42;78.99
10978;BME280;5542;48.272;10.794;2023-03-24T11:37:06;94994.13;;;14.45;77.17
10978;BME280;5542;48.272;10.794;2023-03-24T11:39:36;94992.56;;;14.39;76.52
10978;BME280;5542;48.272;10.794;2023-03-24T11:42:10;94999.72;;;14.33;77.79
10978;BME280;5542;48.272;10.794;2023-03-24T11:44:47;94993.06;;;14.46;76.36
10978;BME280;5542;48.272;10.794;2023-03-24T11:47:19;94992.81;;;14.43;77.59
10978;BME280;5542;48.272;10.794;2023-03-24T11:49:52;94994.13;;;14.45;77.43
10978;BME280;5542;48.272;10.794;2023-03-24T11:52:27;94999.44;;;14.45;75.89
10978;BME280;5542;48.272;10.794;2023-03-24T11:54:55;95007.66;;;14.39;76.26
10978;BME280;5542;48.272;10.794;2023-03-24T11:57:35;95006.06;;;14.38;76.35
10978;BME280;5542;48.272;10.794;2023-03-24T12:00:12;95000.75;;;14.48;74.12
10978;BME280;5542;48.272;10.794;2023-03-24T12:02:55;95016.09;;;14.41;73.29
10978;BME280;5542;48.272;10.794;2023-03-24T12:05:30;95003.94;;;14.40;73.10
10978;BME280;5542;48.272;10.794;2023-03-24T12:08:15;95017.16;;;14.45;72.63
10978;BME280;5542;48.272;10.794;2023-03-24T12:10:56;95000.50;;;14.44;73.10
10978;BME280;5542;48.272;10.794;2023-03-24T12:13:32;94997.88;;;14.39;72.29
10978;BME280;5542;48.272;10.794;2023-03-24T12:16:16;94952.91;;;14.29;72.67
10978;BME280;5542;48.272;10.794;2023-03-24T12:19:11;94934.47;;;14.08;72.22
10978;BME280;5542;48.272;10.794;2023-03-24T12:21:51;94973.38;;;13.93;72.97
10978;BME280;5542;48.272;10.794;2023-03-24T12:24:26;94990.56;;;13.70;72.30
10978;BME280;5542;48.272;10.794;2023-03-24T12:26:59;94980.03;;;13.60;72.73
10978;BME280;5542;48.272;10.794;2023-03-24T12:29:36;95000.09;;;13.66;72.90
10978;BME280;5542;48.272;10.794;2023-03-24T12:32:33;94984.50;;;13.64;71.67
10978;BME280;5542;48.272;10.794;2023-03-24T12:35:36;94983.72;;;13.58;72.76
10978;BME280;5542;48.272;10.794;2023-03-24T12:38:24;94983.44;;;13.45;73.68
10978;BME280;5542;48.272;10.794;2023-03-24T12:41:10;94995.31;;;13.32;73.32
10978;BME280;5542;48.272;10.794;2023-03-24T12:43:47;95008.53;;;13.32;73.58
10978;BME280;5542;48.272;10.794;2023-03-24T12:46:33;94997.19;;;13.37;74.63
10978;BME280;5542;48.272;10.794;2023-03-24T12:49:15;94985.31;;;13.44;73.94
10978;BME280;5542;48.272;10.794;2023-03-24T12:51:54;94987.91;;;13.24;74.59
10978;BME280;5542;48.272;10.794;2023-03-24T12:54:31;94952.78;;;13.28;74.93
10978;BME280;5542;48.272;10.794;2023-03-24T12:57:04;94924.81;;;13.22;74.10
10978;BME280;5542;48.272;10.794;2023-03-24T12:59:36;94919.22;;;13.14;74.55
10978;BME280;5542;48.272;10.794;2023-03-24T13:02:12;94930.84;;;13.07;75.65
10978;BME280;5542;48.272;10.794;2023-03-24T13:04:45;94922.41;;;13.05;75.21
10978;BME280;5542;48.272;10.794;2023-03-24T13:07:16;94932.44;;;13.08;75.56
10978;BME280;5542;48.272;10.794;2023-03-24T13:09:47;94945.09;;;13.06;75.05
10978;BME280;5542;48.272;10.794;2023-03-24T13:12:19;94964.91;;;13.09;73.85
10978;BME280;5542;48.272;10.794;2023-03-24T13:14:55;94963.31;;;13.13;73.50
10978;BME280;5542;48.272;10.794;2023-03-24T13:17:29;94967.81;;;13.18;73.70
10978;BME280;5542;48.272;10.794;2023-03-24T13:19:57;94984.25;;;13.25;73.79
10978;BME280;5542;48.272;10.794;2023-03-24T13:22:26;94974.72;;;13.29;73.10